Aldergrove, Canada
Current Conditions -  °F | °C
As of 4:00 AM on Monday 20 Oct 2014 (Local Time) from CYXX Reporting Station
Light Rain Light Rain  
Wind Chill: 59°   Ceiling: 3000
Heat Index: 59°   Visibility: 6mi
Dew Point: 57°   Wind: 3mph
Humidity: 94%   Direction: NA
Pressure: 29.66"   Gusts: NA
Location:  49.06°N, 122.46°W
Report Text: CYXX 201100Z VRB03KT 6SM -RA SCT020 OVC030 15/14 A2966 RMK SF4SC4 SLP045 DENSITY ALT 400FT
Loading
Personal Weather Stations






























Interactive Weather Map
Tropical Storm Tracking
New forecast layout! Learn more

10-Day Weather Forecast

Advertisements
Track Severe Weather on mobile